• Join FlightAware (Why Join?)
  • Login
  • US Flag 
10:22PM EDT


 

Airport Tracker/Info


-or-


 

Live Flight TrackerFlight Track Log ✈ UCA3597 ✈ 08-May-2014 ✈ KIAD - KBGM

Flight Track Log - Related Links

Times and Time Zones

All times are in EDT time to prevent confusion due to time zone crossing. See the UCA3597 flight status page for this flight to view local times or setup timezone preferences in your user account.

Time Position Orientation Groundspeed Altitude Reporting Facility
EDT Latitude Longitude Course Direction KTS MPH feet Rate Location/Type
09:41PM 39.1695 -77.3638 19° North  Level Estimated
09:42PM 39.2250 -77.3397 19° North  Level Estimated
09:43PM 39.2805 -77.3156 19° North  Level Estimated
09:44PM 39.3360 -77.2914 19° North  Level Estimated
09:45PM 39.3915 -77.2671 19° North  Level Estimated
09:46PM 39.4470 -77.2429 19° North  Level Estimated
09:47PM 39.5024 -77.2185 19° North  Level Estimated
09:48PM 39.5579 -77.1942 19° North  Level Estimated
09:49PM 39.6134 -77.1698 19° North  Level Estimated
09:50PM 39.6688 -77.1454 19° North  Level Estimated
09:51PM 39.7243 -77.1209 19° North  Level Estimated
09:52PM 39.7798 -77.0964 19° North  Level Estimated
09:53PM 39.8352 -77.0718 19° North  Level Estimated
09:54PM 39.8906 -77.0472 19° North  Level Estimated
09:55PM 39.9461 -77.0226 19° North  Level Estimated
09:56PM 40.0015 -76.9980 19° North  Level Estimated
09:57PM 40.0569 -76.9733 19° North  Level Estimated
09:58PM 40.1124 -76.9485 19° North  Level Estimated
09:59PM 40.1678 -76.9237 19° North  Level Estimated
10:00PM 40.2232 -76.8989 19° North  Level Estimated
10:01PM 40.2786 -76.8740 19° North  Level Estimated
10:02PM 40.3340 -76.8491 19° North  Level Estimated
10:03PM 40.3894 -76.8242 19° North  Level Estimated
10:04PM 40.4448 -76.7992 19° North  Level Estimated
10:05PM 40.5001 -76.7741 19° North  Level Estimated
10:06PM 40.5555 -76.7490 19° North  Level Estimated
10:07PM 40.6109 -76.7239 19° North  Level Estimated
10:08PM 40.6663 -76.6988 19° North  Level Estimated
10:09PM 40.7216 -76.6736 19° North  Level Estimated
10:10PM 40.7770 -76.6483 19° North  Level Estimated
10:11PM 40.8323 -76.6230 19° North  Level Estimated
10:12PM 40.8877 -76.5977 19° North  Level Estimated
10:13PM 40.9430 -76.5724 19° North  Level Estimated
10:14PM 40.9984 -76.5470 19° North  Level Estimated
10:15PM 41.0537 -76.5215 19° North  Level Estimated
10:16PM 41.1090 -76.4960 19° North  Level Estimated
10:17PM 41.1643 -76.4705 19° North  Level Estimated
10:18PM 41.2196 -76.4449 19° North  Level Estimated
10:19PM 41.2759 -76.4188 19° North  Level Estimated
10:20PM 41.3321 -76.3927 19° North  Level Estimated
10:21PM 41.3884 -76.3665 19° North  Level Estimated
10:22PM 41.4446 -76.3403 19° North  Level Estimated
10:23PM 41.5009 -76.3141 19° North  Level Estimated
10:24PM 41.5571 -76.2878 19° North  Level Estimated
10:25PM 41.6133 -76.2615 19° North  Level Estimated
10:26PM 41.6695 -76.2351 19° North  Level Estimated
10:27PM 41.7257 -76.2086 19° North  Level Estimated
10:28PM 41.7820 -76.1822 19° North  Level Estimated
10:29PM 41.8382 -76.1556 19° North  Level Estimated
10:30PM 41.8943 -76.1291 19° North  Level Estimated
10:31PM 41.9505 -76.1024 19° North  Level Estimated
10:32PM 42.0067 -76.0758 19° North  Level Estimated
10:33PM 42.0629 -76.0490 19° North  Level Estimated
10:34PM 42.1191 -76.0223 19° North  Level Estimated
10:35PM 42.1752 -75.9955 19° North  Level Estimated
10:36PM 42.2084 -75.9796 19° North  Level Estimated
10:37PM 42.2084 -75.9796 North  Level Estimated
10:38PM 42.2084 -75.9796 North  Level Estimated
10:39PM 42.2084 -75.9796 North  Level Estimated
10:40PM 42.2084 -75.9796 North  Level Estimated
10:41PM 42.2084 -75.9796 North  Level Estimated
10:42PM 42.2084 -75.9796 North  Level Estimated
10:43PM 42.2084 -75.9796 North  Level Estimated
10:44PM 42.2084 -75.9796 North  Level Estimated
10:45PM 42.2084 -75.9796 North  Level Estimated
10:46PM 42.2084 -75.9796 North  Level Estimated
10:47PM 42.2084 -75.9796 North  Level Estimated
10:48PM 42.2084 -75.9796 North  Level Estimated
10:49PM 42.2084 -75.9796 North  Level Estimated
10:50PM 42.2084 -75.9796 North  Level Estimated
10:51PM 42.2084 -75.9796 North  Level Estimated